createdAt,value
2018-09-03T00:01:29.510Z,20.04
2018-09-03T00:03:58.513Z,19.92
2018-09-03T00:06:27.495Z,19.54
2018-09-03T00:08:56.687Z,19.84
2018-09-03T00:11:25.611Z,19.96
2018-09-03T00:13:54.647Z,20.06
2018-09-03T00:16:29.990Z,19.58
2018-09-03T00:18:58.808Z,19.45
2018-09-03T00:21:27.816Z,19.53
2018-09-03T00:23:56.915Z,19.37
2018-09-03T00:26:25.793Z,19.61
2018-09-03T00:28:54.522Z,19.33
2018-09-03T00:33:34.356Z,19.06
2018-09-03T00:37:09.331Z,19.26
2018-09-03T00:39:43.188Z,18.85
2018-09-03T00:43:15.303Z,19.15
2018-09-03T00:45:49.033Z,19.28
2018-09-03T00:48:17.914Z,18.82
2018-09-03T00:50:46.716Z,18.95
2018-09-03T00:53:15.747Z,19.02
2018-09-03T00:55:44.472Z,18.97
2018-09-03T00:58:13.579Z,18.87
2018-09-03T01:00:42.162Z,18.89
2018-09-03T01:03:10.779Z,18.94
2018-09-03T01:05:39.573Z,18.89
2018-09-03T01:08:08.549Z,18.94
2018-09-03T01:10:37.396Z,18.74
2018-09-03T01:13:06.467Z,18.77
2018-09-03T01:15:35.232Z,18.82
2018-09-03T01:18:04.018Z,18.81
2018-09-03T01:20:33.346Z,18.81
2018-09-03T01:23:02.205Z,18.74
2018-09-03T01:25:31.026Z,18.78
2018-09-03T01:27:59.926Z,18.85
2018-09-03T01:30:28.685Z,18.77
2018-09-03T01:32:57.398Z,18.69
2018-09-03T01:35:26.363Z,18.58
2018-09-03T01:37:55.247Z,18.54
2018-09-03T01:40:24.099Z,18.43
2018-09-03T01:42:52.883Z,18.52
2018-09-03T01:45:21.555Z,18.47
2018-09-03T01:47:50.709Z,18.50
2018-09-03T01:50:19.623Z,18.42
2018-09-03T01:52:48.280Z,18.51
2018-09-03T01:55:17.351Z,18.42
2018-09-03T01:57:46.039Z,18.54
2018-09-03T02:00:14.799Z,18.59
2018-09-03T02:02:43.517Z,18.43
2018-09-03T02:05:12.171Z,18.42
2018-09-03T02:07:40.926Z,18.42
2018-09-03T02:10:09.832Z,18.47
2018-09-03T02:12:38.954Z,18.46
2018-09-03T02:15:08.175Z,18.39
2018-09-03T02:17:36.991Z,18.34
2018-09-03T02:20:05.856Z,18.18
2018-09-03T02:22:34.792Z,18.29
2018-09-03T02:25:03.773Z,18.14
2018-09-03T02:27:32.519Z,18.10
2018-09-03T02:30:01.103Z,18.05
2018-09-03T02:32:29.874Z,18.16
2018-09-03T02:34:58.699Z,18.20
2018-09-03T02:37:27.802Z,18.24
2018-09-03T02:39:56.819Z,18.40
2018-09-03T02:42:25.779Z,18.33
2018-09-03T02:44:54.826Z,18.40
2018-09-03T02:47:24.245Z,18.59
2018-09-03T02:49:53.070Z,18.48
2018-09-03T02:52:22.135Z,18.34
2018-09-03T02:54:51.188Z,18.24
2018-09-03T02:57:19.987Z,18.21
2018-09-03T02:59:48.750Z,18.20
2018-09-03T03:02:17.527Z,18.44
2018-09-03T03:04:46.468Z,18.30
2018-09-03T03:07:15.459Z,18.16
2018-09-03T03:09:44.351Z,18.15
2018-09-03T03:12:14.425Z,18.21
2018-09-03T03:14:43.207Z,18.05
2018-09-03T03:17:12.049Z,18.11
2018-09-03T03:19:40.786Z,18.08
2018-09-03T03:22:09.611Z,18.10
2018-09-03T03:24:38.419Z,18.30
2018-09-03T03:27:07.203Z,18.09
2018-09-03T03:29:35.934Z,18.24
2018-09-03T03:32:04.607Z,18.48
2018-09-03T03:34:33.469Z,18.45
2018-09-03T03:37:02.565Z,18.02
2018-09-03T03:39:31.615Z,18.18
2018-09-03T03:42:00.540Z,18.20
2018-09-03T03:44:29.756Z,18.23
2018-09-03T03:46:58.635Z,18.05
2018-09-03T03:49:27.726Z,18.21
2018-09-03T03:51:56.707Z,17.97
2018-09-03T03:54:25.669Z,18.08
2018-09-03T03:56:54.731Z,18.22
2018-09-03T03:59:23.376Z,18.22
2018-09-03T04:01:52.536Z,18.36
2018-09-03T04:04:21.814Z,18.23
2018-09-03T04:06:51.031Z,18.10
2018-09-03T04:09:19.952Z,18.22
2018-09-03T04:11:49.058Z,18.07
2018-09-03T04:14:17.838Z,17.88
2018-09-03T04:16:46.622Z,18.15
2018-09-03T04:19:15.786Z,18.22
2018-09-03T04:21:44.467Z,18.30
2018-09-03T04:24:13.271Z,18.20
2018-09-03T04:26:42.315Z,18.22
2018-09-03T04:29:11.124Z,18.25
2018-09-03T04:31:39.771Z,18.53
2018-09-03T04:34:08.557Z,18.67
2018-09-03T04:36:37.633Z,18.45
2018-09-03T04:39:08.729Z,18.62
2018-09-03T04:41:37.794Z,18.65
2018-09-03T04:44:07.106Z,19.05
2018-09-03T04:46:35.897Z,19.04
2018-09-03T04:49:05.028Z,18.99
2018-09-03T04:51:34.010Z,18.96
2018-09-03T04:54:03.351Z,18.99
2018-09-03T04:56:32.360Z,19.34
2018-09-03T04:59:01.034Z,19.39
2018-09-03T05:01:30.174Z,19.63
2018-09-03T05:03:59.254Z,19.30
2018-09-03T05:06:28.228Z,19.48
2018-09-03T05:08:57.261Z,19.54
2018-09-03T05:11:26.036Z,19.82
2018-09-03T05:13:55.003Z,19.79
2018-09-03T05:16:24.143Z,19.87
2018-09-03T05:18:52.982Z,19.92
2018-09-03T05:21:21.764Z,20.34
2018-09-03T05:23:50.747Z,20.54
2018-09-03T05:26:19.414Z,20.67
2018-09-03T05:28:48.086Z,21.10
2018-09-03T05:31:17.355Z,20.96
2018-09-03T05:33:46.144Z,21.45
2018-09-03T05:36:15.162Z,21.32
2018-09-03T05:38:44.327Z,21.47
2018-09-03T05:41:13.172Z,21.83
2018-09-03T05:43:42.506Z,21.83
2018-09-03T05:46:11.745Z,21.95
2018-09-03T05:48:40.566Z,21.90
2018-09-03T05:51:09.494Z,22.09
2018-09-03T05:53:38.177Z,22.13
2018-09-03T05:56:07.071Z,22.28
2018-09-03T05:58:35.895Z,22.36
2018-09-03T06:01:05.715Z,22.39
2018-09-03T06:03:34.570Z,22.50
2018-09-03T06:06:03.592Z,22.71
2018-09-03T06:08:32.734Z,22.79
2018-09-03T06:11:01.845Z,22.91
2018-09-03T06:13:30.684Z,23.00
2018-09-03T06:16:00.005Z,23.16
2018-09-03T06:18:28.897Z,23.17
2018-09-03T06:20:57.779Z,23.24
2018-09-03T06:23:26.971Z,23.35
2018-09-03T06:25:55.635Z,23.43
2018-09-03T06:28:24.360Z,23.42
2018-09-03T06:30:53.756Z,23.58
2018-09-03T06:33:22.722Z,23.79
2018-09-03T06:35:51.640Z,23.86
2018-09-03T06:38:21.006Z,23.91
2018-09-03T06:40:49.894Z,24.09
2018-09-03T06:43:18.716Z,24.22
2018-09-03T06:45:48.079Z,24.43
2018-09-03T06:48:17.034Z,24.60
2018-09-03T06:50:45.821Z,24.79
2018-09-03T06:53:14.977Z,24.87
2018-09-03T06:55:43.721Z,24.97
2018-09-03T06:58:12.465Z,25.11
2018-09-03T07:00:41.858Z,25.19
2018-09-03T07:03:10.963Z,25.38
2018-09-03T07:05:39.872Z,25.63
2018-09-03T07:08:08.825Z,25.77
2018-09-03T07:10:37.775Z,25.85
2018-09-03T07:13:07.762Z,26.08
2018-09-03T07:15:37.209Z,26.34
2018-09-03T07:18:06.734Z,26.48
2018-09-03T07:20:35.886Z,26.44
2018-09-03T07:23:04.832Z,25.95
2018-09-03T07:25:33.553Z,26.47
2018-09-03T07:28:02.692Z,26.45
2018-09-03T07:30:31.874Z,26.14
2018-09-03T07:33:00.771Z,26.21
2018-09-03T07:35:29.950Z,26.11
2018-09-03T07:37:59.489Z,26.38
2018-09-03T07:40:28.202Z,26.48
2018-09-03T07:42:57.102Z,26.89
2018-09-03T07:45:26.683Z,27.01
2018-09-03T07:47:55.639Z,27.22
2018-09-03T07:50:24.324Z,27.59
2018-09-03T07:52:53.428Z,28.02
2018-09-03T07:55:22.083Z,28.34
2018-09-03T07:57:51.080Z,28.55
2018-09-03T08:00:20.602Z,28.75
2018-09-03T08:02:49.510Z,28.94
2018-09-03T08:05:18.498Z,28.97
2018-09-03T08:07:47.606Z,29.32
2018-09-03T08:10:16.788Z,29.61
2018-09-03T08:12:45.920Z,29.46
2018-09-03T08:15:15.120Z,29.70
2018-09-03T08:17:44.103Z,29.90
2018-09-03T08:20:13.110Z,30.13
2018-09-03T08:22:42.187Z,30.00
2018-09-03T08:25:10.934Z,30.30
2018-09-03T08:27:39.926Z,30.42
2018-09-03T08:30:09.462Z,30.72
2018-09-03T08:32:38.373Z,30.73
2018-09-03T08:35:07.298Z,30.85
2018-09-03T08:37:36.650Z,30.81
2018-09-03T08:40:05.830Z,31.11
2018-09-03T08:42:34.707Z,30.91
2018-09-03T08:45:03.946Z,30.82
2018-09-03T08:47:32.716Z,31.14
2018-09-03T08:50:02.019Z,30.96
2018-09-03T08:52:30.706Z,30.77
2018-09-03T08:54:59.505Z,31.17
2018-09-03T08:57:28.576Z,31.42
2018-09-03T08:59:57.780Z,31.63
2018-09-03T09:02:26.811Z,31.72
2018-09-03T09:04:55.716Z,32.05
2018-09-03T09:07:25.123Z,31.78
2018-09-03T09:09:53.896Z,32.07
2018-09-03T09:12:22.670Z,32.02
2018-09-03T09:14:51.915Z,32.21
2018-09-03T09:17:20.665Z,32.19
2018-09-03T09:19:49.547Z,32.43
2018-09-03T09:22:18.783Z,32.61
2018-09-03T09:24:47.461Z,32.79
2018-09-03T09:27:16.623Z,33.21
2018-09-03T09:29:45.952Z,33.29
2018-09-03T09:32:14.867Z,33.07
2018-09-03T09:34:43.995Z,33.36
2018-09-03T09:37:13.383Z,33.17
2018-09-03T09:39:42.415Z,33.28
2018-09-03T09:42:11.509Z,33.45
2018-09-03T09:44:40.830Z,33.38
2018-09-03T09:47:09.994Z,33.26
2018-09-03T09:49:38.903Z,33.03
2018-09-03T09:52:07.833Z,33.16
2018-09-03T09:54:37.220Z,33.02
2018-09-03T09:57:06.226Z,33.64
2018-09-03T09:59:36.576Z,33.86
2018-09-03T10:02:05.705Z,33.91
2018-09-03T10:04:34.450Z,34.11
2018-09-03T10:07:03.233Z,34.38
2018-09-03T10:09:32.391Z,35.15
2018-09-03T10:12:01.239Z,35.21
2018-09-03T10:14:30.299Z,35.19
2018-09-03T10:16:59.074Z,35.21
2018-09-03T10:19:27.726Z,34.07
2018-09-03T10:21:56.734Z,34.31
2018-09-03T10:24:25.435Z,33.99
2018-09-03T10:26:54.546Z,34.11
2018-09-03T10:29:24.175Z,34.26
2018-09-03T10:31:53.339Z,34.35
2018-09-03T10:34:22.342Z,34.87
2018-09-03T10:36:51.856Z,34.92
2018-09-03T10:39:20.746Z,34.85
2018-09-03T10:41:49.730Z,34.40
2018-09-03T10:44:18.372Z,34.50
2018-09-03T10:46:48.675Z,34.36
2018-09-03T10:49:17.327Z,34.61
2018-09-03T10:51:46.326Z,34.27
2018-09-03T10:54:15.042Z,34.34
2018-09-03T10:56:43.678Z,34.37
2018-09-03T10:59:13.433Z,34.33
2018-09-03T11:01:42.308Z,34.44
2018-09-03T11:04:11.061Z,34.39
2018-09-03T11:06:40.210Z,34.48
2018-09-03T11:09:10.251Z,34.26
2018-09-03T11:11:39.442Z,34.40
2018-09-03T11:14:08.849Z,34.05
2018-09-03T11:16:38.250Z,33.90
2018-09-03T11:19:07.407Z,33.82
2018-09-03T11:21:36.274Z,34.27
2018-09-03T11:24:04.851Z,34.32
2018-09-03T11:26:34.214Z,34.31
2018-09-03T11:29:03.094Z,34.29
2018-09-03T11:31:32.151Z,34.03
2018-09-03T11:34:01.392Z,34.52
2018-09-03T11:36:30.066Z,34.86
2018-09-03T11:38:59.133Z,34.67
2018-09-03T11:41:28.050Z,34.92
2018-09-03T11:43:57.050Z,35.46
2018-09-03T11:46:25.877Z,35.64
2018-09-03T11:48:54.854Z,35.89
2018-09-03T11:51:23.618Z,35.38
2018-09-03T11:53:52.326Z,35.74
2018-09-03T11:56:21.531Z,35.82
2018-09-03T11:58:50.422Z,35.97
2018-09-03T12:01:19.416Z,34.52
2018-09-03T12:03:48.606Z,34.89
2018-09-03T12:06:17.591Z,34.98
2018-09-03T12:08:46.438Z,34.36
2018-09-03T12:11:15.402Z,33.41
2018-09-03T12:13:44.255Z,32.80
2018-09-03T12:16:19.009Z,32.23
2018-09-03T12:18:47.720Z,31.11
2018-09-03T12:21:16.723Z,31.46
2018-09-03T12:23:46.252Z,31.65
2018-09-03T12:26:15.062Z,31.56
2018-09-03T12:28:43.890Z,31.44
2018-09-03T12:31:13.315Z,31.72
2018-09-03T12:33:42.376Z,31.63
2018-09-03T12:36:11.217Z,31.55
2018-09-03T12:38:40.158Z,31.46
2018-09-03T12:41:08.877Z,31.86
2018-09-03T12:43:38.026Z,31.53
2018-09-03T12:46:08.521Z,30.93
2018-09-03T12:48:37.136Z,30.69
2018-09-03T12:51:06.151Z,30.61
2018-09-03T12:53:35.460Z,30.08
2018-09-03T12:56:04.328Z,30.39
2018-09-03T12:58:33.129Z,30.52
2018-09-03T13:01:02.448Z,29.33
2018-09-03T13:03:31.393Z,28.48
2018-09-03T13:06:00.196Z,28.06
2018-09-03T13:08:29.523Z,27.51
2018-09-03T13:10:58.453Z,27.88
2018-09-03T13:13:27.465Z,28.18
2018-09-03T13:15:56.528Z,28.27
2018-09-03T13:18:25.186Z,28.25
2018-09-03T13:20:53.924Z,28.28
2018-09-03T13:23:23.063Z,28.39
2018-09-03T13:25:51.852Z,28.59
2018-09-03T13:28:20.568Z,28.85
2018-09-03T13:30:50.073Z,29.43
2018-09-03T13:33:18.813Z,30.28
2018-09-03T13:35:48.032Z,30.71
2018-09-03T13:38:17.131Z,31.16
2018-09-03T13:40:45.960Z,31.61
2018-09-03T13:43:14.908Z,31.06
2018-09-03T13:45:43.673Z,31.77
2018-09-03T13:48:12.491Z,32.06
2018-09-03T13:50:41.291Z,32.11
2018-09-03T13:53:10.564Z,31.89
2018-09-03T13:55:39.387Z,32.08
2018-09-03T13:58:08.450Z,32.16
2018-09-03T14:00:37.780Z,32.10
2018-09-03T14:03:06.783Z,32.16
2018-09-03T14:05:35.852Z,32.05
2018-09-03T14:08:04.927Z,32.08
2018-09-03T14:10:33.947Z,32.14
2018-09-03T14:13:03.189Z,32.14
2018-09-03T14:15:31.808Z,31.69
2018-09-03T14:18:00.462Z,31.74
2018-09-03T14:20:29.544Z,31.97
2018-09-03T14:22:58.716Z,31.94
2018-09-03T14:25:28.632Z,31.46
2018-09-03T14:27:57.552Z,31.03
2018-09-03T14:30:27.409Z,30.96
2018-09-03T14:32:56.142Z,30.53
2018-09-03T14:35:25.009Z,30.13
2018-09-03T14:37:54.230Z,29.48
2018-09-03T14:40:23.130Z,28.64
2018-09-03T14:42:51.898Z,28.14
2018-09-03T14:45:21.343Z,28.12
2018-09-03T14:47:50.118Z,27.80
2018-09-03T14:50:18.782Z,27.93
2018-09-03T14:52:47.832Z,28.16
2018-09-03T14:55:16.842Z,28.28
2018-09-03T14:57:45.748Z,28.73
2018-09-03T15:00:15.039Z,28.59
2018-09-03T15:02:44.066Z,28.33
2018-09-03T15:05:12.985Z,27.90
2018-09-03T15:07:42.462Z,27.99
2018-09-03T15:10:11.439Z,28.02
2018-09-03T15:12:40.225Z,27.86
2018-09-03T15:15:09.658Z,27.74
2018-09-03T15:17:38.398Z,27.24
2018-09-03T15:20:07.358Z,26.85
2018-09-03T15:22:36.133Z,27.17
2018-09-03T15:25:05.511Z,27.45
2018-09-03T15:27:34.405Z,27.63
2018-09-03T15:30:03.911Z,27.49
2018-09-03T15:32:32.771Z,27.45
2018-09-03T15:35:01.633Z,27.22
2018-09-03T15:37:31.428Z,26.83
2018-09-03T15:40:00.142Z,26.61
2018-09-03T15:42:29.054Z,26.61
2018-09-03T15:44:58.158Z,26.50
2018-09-03T15:47:26.850Z,26.29
2018-09-03T15:49:55.986Z,25.99
2018-09-03T15:52:25.194Z,25.39
2018-09-03T15:54:54.054Z,25.32
2018-09-03T15:57:22.926Z,25.06
2018-09-03T15:59:51.810Z,24.93
2018-09-03T16:02:20.528Z,24.23
2018-09-03T16:04:49.519Z,23.70
2018-09-03T16:07:18.808Z,23.28
2018-09-03T16:09:47.916Z,23.26
2018-09-03T16:12:17.068Z,22.82
2018-09-03T16:14:46.330Z,22.33
2018-09-03T16:17:14.948Z,22.09
2018-09-03T16:19:43.684Z,21.60
2018-09-03T16:22:13.068Z,21.08
2018-09-03T16:24:42.186Z,21.23
2018-09-03T16:27:11.305Z,21.27
2018-09-03T16:29:40.507Z,21.25
2018-09-03T16:32:09.431Z,21.14
2018-09-03T16:34:38.573Z,21.23
2018-09-03T16:37:07.483Z,21.41
2018-09-03T16:39:36.670Z,21.52
2018-09-03T16:42:05.596Z,21.63
2018-09-03T16:44:34.872Z,21.37
2018-09-03T16:47:03.571Z,20.77
2018-09-03T16:49:32.246Z,20.83
2018-09-03T16:52:00.953Z,20.87
2018-09-03T16:54:29.753Z,20.98
2018-09-03T16:56:58.624Z,20.78
2018-09-03T16:59:27.954Z,20.86
2018-09-03T17:02:00.071Z,20.81
2018-09-03T17:04:29.642Z,21.00
2018-09-03T17:06:58.690Z,21.18
2018-09-03T17:09:27.975Z,21.15
2018-09-03T17:11:56.965Z,21.08
2018-09-03T17:14:25.794Z,21.19
2018-09-03T17:16:54.622Z,21.36
2018-09-03T17:19:23.282Z,21.41
2018-09-03T17:21:52.350Z,21.34
2018-09-03T17:24:21.560Z,21.53
2018-09-03T17:26:50.630Z,21.58
2018-09-03T17:29:19.693Z,21.56
2018-09-03T17:31:49.078Z,21.53
2018-09-03T17:34:17.989Z,21.49
2018-09-03T17:36:46.830Z,21.20
2018-09-03T17:39:15.874Z,21.32
2018-09-03T17:41:44.635Z,21.30
2018-09-03T17:44:13.323Z,21.41
2018-09-03T17:46:42.326Z,21.04
2018-09-03T17:49:11.038Z,20.90
2018-09-03T17:51:40.135Z,20.87
2018-09-03T17:54:08.978Z,20.65
2018-09-03T17:56:37.766Z,20.83
2018-09-03T17:59:07.235Z,20.75
2018-09-03T18:01:36.665Z,20.72
2018-09-03T18:04:05.762Z,20.64
2018-09-03T18:06:34.727Z,20.69
2018-09-03T18:09:04.252Z,20.77
2018-09-03T18:11:33.019Z,20.81
2018-09-03T18:14:01.826Z,20.81
2018-09-03T18:16:30.829Z,20.70
2018-09-03T18:18:59.480Z,20.86
2018-09-03T18:21:28.214Z,20.79
2018-09-03T18:23:57.567Z,20.75
2018-09-03T18:26:26.333Z,20.72
2018-09-03T18:28:55.483Z,20.92
2018-09-03T18:31:24.271Z,21.04
2018-09-03T18:33:53.432Z,21.08
2018-09-03T18:36:22.282Z,21.08
2018-09-03T18:38:52.010Z,21.01
2018-09-03T18:41:20.839Z,21.13
2018-09-03T18:43:49.598Z,21.10
2018-09-03T18:46:18.745Z,20.98
2018-09-03T18:48:47.498Z,20.76
2018-09-03T18:51:16.231Z,20.80
2018-09-03T18:53:45.592Z,20.79
2018-09-03T18:56:14.545Z,20.54
2018-09-03T18:58:43.627Z,20.65
2018-09-03T19:01:13.023Z,20.53
2018-09-03T19:03:41.807Z,20.64
2018-09-03T19:06:11.313Z,20.47
2018-09-03T19:08:40.407Z,20.35
2018-09-03T19:11:09.504Z,20.11
2018-09-03T19:13:38.291Z,20.14
2018-09-03T19:16:07.407Z,20.07
2018-09-03T19:18:36.199Z,20.17
2018-09-03T19:21:04.875Z,19.93
2018-09-03T19:23:33.964Z,19.86
2018-09-03T19:26:03.264Z,19.88
2018-09-03T19:28:32.102Z,19.82
2018-09-03T19:31:01.557Z,19.84
2018-09-03T19:33:30.831Z,19.84
2018-09-03T19:35:59.435Z,19.74
2018-09-03T19:38:28.651Z,20.03
2018-09-03T19:40:57.660Z,19.76
2018-09-03T19:43:26.730Z,19.71
2018-09-03T19:45:56.154Z,19.84
2018-09-03T19:48:25.431Z,19.75
2018-09-03T19:50:54.122Z,19.66
2018-09-03T19:53:23.654Z,19.37
2018-09-03T19:55:52.862Z,19.20
2018-09-03T19:58:21.829Z,19.09
2018-09-03T20:00:51.166Z,18.92
2018-09-03T20:03:20.239Z,19.11
2018-09-03T20:05:49.361Z,19.07
2018-09-03T20:08:18.876Z,18.75
2018-09-03T20:10:47.615Z,18.70
2018-09-03T20:13:16.478Z,18.67
2018-09-03T20:15:45.813Z,18.70
2018-09-03T20:18:14.535Z,18.53
2018-09-03T20:20:43.117Z,18.49
2018-09-03T20:23:11.935Z,18.54
2018-09-03T20:25:40.997Z,18.71
2018-09-03T20:28:09.838Z,18.53
2018-09-03T20:30:39.153Z,18.39
2018-09-03T20:33:08.163Z,18.37
2018-09-03T20:35:37.350Z,18.36
2018-09-03T20:38:06.462Z,18.39
2018-09-03T20:40:35.452Z,18.43
2018-09-03T20:43:04.320Z,18.34
2018-09-03T20:45:33.328Z,18.30
2018-09-03T20:48:02.043Z,18.53
2018-09-03T20:50:30.801Z,18.52
2018-09-03T20:52:59.662Z,18.75
2018-09-03T20:55:28.685Z,18.66
2018-09-03T20:57:57.487Z,18.70
2018-09-03T21:00:26.578Z,18.64
2018-09-03T21:02:55.346Z,18.50
2018-09-03T21:05:24.070Z,18.49
2018-09-03T21:07:53.249Z,18.56
2018-09-03T21:10:22.381Z,18.79
2018-09-03T21:12:51.945Z,18.94
2018-09-03T21:15:21.275Z,18.95
2018-09-03T21:17:50.043Z,19.03
2018-09-03T21:20:18.868Z,19.01
2018-09-03T21:22:48.153Z,19.23
2018-09-03T21:25:17.235Z,19.20
2018-09-03T21:27:46.098Z,19.27
2018-09-03T21:30:15.130Z,19.30
2018-09-03T21:32:44.082Z,19.32
2018-09-03T21:35:13.205Z,19.14
2018-09-03T21:37:42.309Z,19.41
2018-09-03T21:40:11.177Z,19.60
2018-09-03T21:42:39.896Z,19.56
2018-09-03T21:45:08.988Z,19.51
2018-09-03T21:47:37.754Z,19.67
2018-09-03T21:50:06.619Z,19.73
2018-09-03T21:52:35.845Z,19.68
2018-09-03T21:55:04.869Z,19.76
2018-09-03T21:57:33.950Z,19.77
2018-09-03T22:00:03.385Z,19.83
2018-09-03T22:02:32.291Z,19.89
2018-09-03T22:05:01.398Z,20.02
2018-09-03T22:07:30.652Z,20.11
2018-09-03T22:09:59.524Z,20.10
2018-09-03T22:12:28.550Z,19.91
2018-09-03T22:14:57.317Z,19.87
2018-09-03T22:17:26.040Z,19.91
2018-09-03T22:19:54.742Z,20.16
2018-09-03T22:22:23.881Z,20.21
2018-09-03T22:24:52.659Z,19.86
2018-09-03T22:27:21.553Z,20.18
2018-09-03T22:29:50.533Z,20.01
2018-09-03T22:32:19.433Z,20.20
2018-09-03T22:34:48.236Z,20.27
2018-09-03T22:37:17.658Z,20.25
2018-09-03T22:39:46.553Z,20.23
2018-09-03T22:42:15.524Z,20.19
2018-09-03T22:44:44.542Z,20.17
2018-09-03T22:47:13.207Z,20.14
2018-09-03T22:49:41.951Z,20.31
2018-09-03T22:52:11.054Z,20.37
2018-09-03T22:54:40.100Z,20.25
2018-09-03T22:57:09.092Z,20.05
2018-09-03T22:59:38.274Z,19.90
2018-09-03T23:02:07.084Z,19.87
2018-09-03T23:04:36.038Z,19.74
2018-09-03T23:07:05.219Z,19.79
2018-09-03T23:09:34.026Z,19.64
2018-09-03T23:12:03.058Z,19.61
2018-09-03T23:14:32.274Z,19.60
2018-09-03T23:17:01.014Z,19.73
2018-09-03T23:19:29.670Z,19.56
2018-09-03T23:21:59.105Z,19.90
2018-09-03T23:24:27.986Z,19.93
2018-09-03T23:26:56.782Z,19.88
2018-09-03T23:29:26.122Z,19.88
2018-09-03T23:31:55.318Z,19.63
2018-09-03T23:34:24.293Z,19.73
2018-09-03T23:36:53.950Z,19.77
2018-09-03T23:39:22.788Z,19.87
2018-09-03T23:41:51.694Z,19.92
2018-09-03T23:44:20.775Z,19.99
2018-09-03T23:46:49.437Z,19.89
2018-09-03T23:49:18.246Z,19.88
2018-09-03T23:51:47.371Z,19.94
2018-09-03T23:54:16.366Z,20.03
2018-09-03T23:56:45.061Z,19.99
2018-09-03T23:59:14.196Z,20.01
